Prescott, Wisconsin
Current Conditions -  °F | °C
As of 8:10 PM on Saturday 22 Nov 2014 (Local Time) from KSGS Reporting Station
Haze Haze  
Wind Chill: 33°   Ceiling: 200
Heat Index: 37°   Visibility: 0.75mi
Dew Point: 36°   Wind: 5mph
Humidity: 96%   Direction: 150°SSE
Pressure: 29.58"   Gusts: NA
Location:  44.75°N, 92.8°W
Report Text: KSGS 230210Z AUTO 15004KT 3/4SM BR OVC002 03/02 A2958 RMK AO2 T00260020
Loading
Personal Weather Stations






























Interactive Weather Map New forecast layout! Learn more

10-Day Weather Forecast

Advertisements
Track Severe Weather on mobile